Weather at Volos Army Airport [CLOSED]

Public forecast

Using degrees Celsius for public forecast. Weather courtesy of forecast.io.

Closest aviation weather report (METAR) to Volos Army Airport

Report is more than 6 hours old.

Closest report is Nea Anchialos National Airport, 11.4 nm (21.1 km) SSW. Retrieved 2022/09/17 18:50 UTC (16 days ago):

LGBL 171850Z 26011KT CAVOK 30/15 Q1003 BLU

Closest aviation forecast (TAF) to Volos Army Airport

Forecast is more than 12 hours old.

Closest forecast is Skiathos Island National Airport, 29.9 nm (55.5 km) ESE. Retrieved 2012/09/27 00:18 UTC (10 years ago):

TAF LGSK 272300Z 2800/2909 01010KT 9999 FEW020